KHEG

Herlong Recreational Airport

Jacksonville, Florida, USA
METAR KHEG 110155Z AUTO 00000KT 10SM OVC027 08/04 A3019 RMK AO2
Observed Flight Rules
Dec-11 @ 01:55 UTC (30 minutes ago) Marginal Visual Flight Rules
Visibility Clouds
10 miles
  • Overcast at 2,700' AGL
Temperatures Readings
Current 8°C / 46°F
Dewpoint 4°C / 39°F
Humidity 76%
Altimeter 30.19" Hg
Pressure 1022 hPa
Elevation 27
METAR KHEG 110155Z AUTO 00000KT 10SM OVC027 08/04 A3019 RMK AO2
Observed Flight Rules
Dec-11 @ 01:55 UTC
(30 minutes ago)
MVFR
Clouds
  • Overcast at 2,700' AGL
Temperature Dewpoint
8°C / 46°F 4°C / 39°F
Humidity Altimeter Pressure
76% 30.19" Hg 1022 hPa